Terminal Aerodrome Forecast
Issued by NWS

Home | Current Version | Previous Version | Graphics & Text | Print | Product List | Glossary On
Versions: 1 2 3 4 5 6 7 8 9 10 11 12
000
FTUS43 KOAX 291125
TAFCDR
TAF
KCDR 291125Z 2912/3012 VRB05KT P6SM VCTS SCT080CB BKN100
     FM291500 32006KT P6SM SCT100
     FM291800 04006KT P6SM FEW100
     FM300200 16006KT P6SM SKC=

USA.gov is the U.S. government's official web portal to all federal, state and local government web resources and services.